CheckWX is a tool to help pilots better visualize weather data.  It is not intended as a substitute for an official pre-flight weather briefing.

01:12:24 UTC

CYCB METAR
Cambridge Bay Airport
Cambridge Bay, Canada
Current

1 hour ago

CYCB 200000Z 21007KT 15SM BKN051 12/05 A2988 RMK SC7 SLP121
Observed
Jul-20 @ 00:00 UTC
Wind
  • 210° at 7 KTS
Visibility
15 SM
Flight Rules
VFR
Cloud Levels
  • Broken at 5,100' AGL
Temperature
12°C / 54°F
Dewpoint
C / 41°F
Humidity
63%
Altimeter
29.88" Hg
Pressure
1011.82 hPa
Previous

2 hours ago

CYCB 192300Z 22007KT 15SM FEW015 BKN051 BKN150 13/05 A2987 RMK CF1SC5AC2 CF TR SLP119
Observed
Jul-19 @ 23:00 UTC
Wind
  • 220° at 7 KTS
Visibility
15 SM
Flight Rules
VFR
Cloud Levels
  • Few at 1,500' AGL
  • Broken at 5,100' AGL
  • Broken at 15,000' AGL
Temperature
13°C / 55°F
Dewpoint
C / 41°F
Humidity
59%
Altimeter
29.87" Hg
Pressure
1011.52 hPa
Previous

3 hours ago

CYCB 192200Z 21006KT 15SM FEW015 BKN050 BKN150 13/05 A2986 RMK CF1SC5AC1 CF TR SLP116
Observed
Jul-19 @ 22:00 UTC
Wind
  • 210° at 6 KTS
Visibility
15 SM
Flight Rules
VFR
Cloud Levels
  • Few at 1,500' AGL
  • Broken at 5,000' AGL
  • Broken at 15,000' AGL
Temperature
13°C / 55°F
Dewpoint
C / 41°F
Humidity
59%
Altimeter
29.86" Hg
Pressure
1011.22 hPa